Grass Valley, CA (95945)

11:24 PM PDT on August 30, 2016 (GMT -0700)
Peardale | | Change Station

Elev 2697 ft 39.18 °N, 120.97 °W | Updated 31 seconds ago

Clear
Clear
62.4 °F
Feels Like 62.4 °F
N
0.9
Wind Variable Wind from NW
Gusts 1.0 mph

Today
High -- | Low -- °F
--% Chance of Precip.
Yesterday
High -- | Low -- °F
Precip. -- in
Pressure 29.93 in
Visibility 10.0 miles
Clouds Clear
Dew Point 42 °F
Humidity 48%
Rainfall 0.00 in
Snow Depth Not available.
6:31 AM 7:36 PM
Waning Crescent, 1% visible
METAR KAUN 310615Z AUTO 13004KT 10SM CLR 23/08 A2993 RMK AO1
Pressure 29.93 in
Visibility 10.0 miles
Clouds Clear
Dew Point 42 °F
Humidity 48%
Rainfall 0.00 in
Snow Depth Not available.
6:31 AM 7:36 PM
Waning Crescent, 1% visible
METAR KAUN 310615Z AUTO 13004KT 10SM CLR 23/08 A2993 RMK AO1

10-Day Weather Forecast

Almanac

Astronomy

Aug. 30, 2016 Rise Set
Actual Time
Civil Twilight
Nautical Twilight
Astronomical Twilight
Moon
Length of Visible Light
Length of Day
Tomorrow will be .
, % of the Moon is Illuminated

Today's Extremes

State Highs State Lows

Community

WunderPhotos

Upload Photos

1,936,040 photos uploaded!

WunderBlog® & News

Nearby

Air Quality

  Air Quality AQ Index Pollutant
Not available.

Snow Depth

Station Depth Elevation

Earthquake Activity

City Distance Mag. Time & Date
Minimum magnitude displayed is 2.5.

Coastal Water Temperatures

Place Temperature

Stations

Nearby Weather Stations

Station Location Temp. Windchill Dew Point Humidity Wind Precip. Elev Updated Type
                   

Watches & Warnings

There are currently no watches in effect.